Santa Coloma de Gramanet, Spain
Current Conditions -  °F | °C
As of 4:30 PM on Friday 28 Nov 2014 (Local Time) from LELL Reporting Station
Scattered Clouds Scattered Clouds  
Wind Chill: 64°   Ceiling: Unl
Heat Index: 64°   Visibility: 6mi
Dew Point: 59°   Wind: 8mph
Humidity: 83%   Direction: 80°E
Pressure: 29.38"   Gusts: NA
Location:  41.45°N, 2.22°E
Report Text: LELL 281530Z 08007KT 030V130 9999 SCT018 SCT035 18/15 Q0995
Loading
Personal Weather Stations






























Interactive Weather Map New forecast layout! Learn more

10-Day Weather Forecast

Advertisements
Track Severe Weather on mobile